createdAt,value
2023-03-07T00:06:26.508Z,2.20
2023-03-07T00:12:28.246Z,2.20
2023-03-07T00:18:31.214Z,2.30
2023-03-07T00:24:33.114Z,2.20
2023-03-07T00:30:35.084Z,2.20
2023-03-07T00:36:36.896Z,2.30
2023-03-07T00:42:38.709Z,2.20
2023-03-07T00:48:41.001Z,2.20
2023-03-07T00:54:42.797Z,2.20
2023-03-07T01:00:44.705Z,2.10
2023-03-07T01:06:46.647Z,2.10
2023-03-07T01:12:48.575Z,2.10
2023-03-07T01:18:53.515Z,2.00
2023-03-07T01:24:55.397Z,2.00
2023-03-07T01:30:58.890Z,2.00
2023-03-07T01:37:00.914Z,1.90
2023-03-07T01:43:32.131Z,1.80
2023-03-07T01:49:47.686Z,1.80
2023-03-07T01:55:50.412Z,1.70
2023-03-07T02:01:54.109Z,1.60
2023-03-07T02:08:00.406Z,1.60
2023-03-07T02:14:04.695Z,1.60
2023-03-07T02:20:21.629Z,1.60
2023-03-07T02:26:31.943Z,1.60
2023-03-07T02:32:34.480Z,1.60
2023-03-07T02:38:39.931Z,1.60
2023-03-07T02:44:47.176Z,1.60
2023-03-07T02:50:51.503Z,1.60
2023-03-07T02:56:54.407Z,1.60
2023-03-07T03:02:57.483Z,1.60
2023-03-07T03:09:01.196Z,1.50
2023-03-07T03:15:04.532Z,1.50
2023-03-07T03:21:12.034Z,1.50
2023-03-07T03:27:14.028Z,1.50
2023-03-07T03:33:17.674Z,1.50
2023-03-07T03:39:21.614Z,1.40
2023-03-07T03:45:28.466Z,1.50
2023-03-07T03:51:31.130Z,1.50
2023-03-07T03:57:33.487Z,1.60
2023-03-07T04:03:38.172Z,1.60
2023-03-07T04:09:40.079Z,1.60
2023-03-07T04:15:42.217Z,1.70
2023-03-07T04:21:44.809Z,1.70
2023-03-07T04:27:49.653Z,1.70
2023-03-07T04:33:52.985Z,1.70
2023-03-07T04:39:54.810Z,1.80
2023-03-07T04:45:57.731Z,1.80
2023-03-07T04:51:59.707Z,1.90
2023-03-07T04:58:01.718Z,1.90
2023-03-07T05:04:03.757Z,2.00
2023-03-07T05:10:06.312Z,2.00
2023-03-07T05:16:08.438Z,2.10
2023-03-07T05:22:10.414Z,2.20
2023-03-07T05:28:12.373Z,2.10
2023-03-07T05:34:15.897Z,2.20
2023-03-07T05:40:18.945Z,2.20
2023-03-07T05:46:22.842Z,2.20
2023-03-07T05:52:24.779Z,2.30
2023-03-07T05:58:26.602Z,2.30
2023-03-07T06:04:28.790Z,2.40
2023-03-07T06:10:30.586Z,2.40
2023-03-07T06:16:32.824Z,2.30
2023-03-07T06:22:39.928Z,2.30
2023-03-07T06:28:42.870Z,2.40
2023-03-07T06:34:46.082Z,2.40
2023-03-07T06:40:56.522Z,2.50
2023-03-07T06:46:58.533Z,2.60
2023-03-07T06:53:00.577Z,2.60
2023-03-07T06:59:02.653Z,2.80
2023-03-07T07:05:05.724Z,2.80
2023-03-07T07:11:07.727Z,2.90
2023-03-07T07:17:10.305Z,2.90
2023-03-07T07:23:12.152Z,2.90
2023-03-07T07:29:14.001Z,3.00
2023-03-07T07:35:17.829Z,3.10
2023-03-07T07:41:20.268Z,3.20
2023-03-07T07:47:25.103Z,3.30
2023-03-07T07:53:26.941Z,3.30
2023-03-07T07:59:28.886Z,3.40
2023-03-07T08:05:30.859Z,3.50
2023-03-07T08:11:32.772Z,3.50
2023-03-07T08:17:34.489Z,3.50
2023-03-07T08:23:36.966Z,3.60
2023-03-07T08:29:38.856Z,3.70
2023-03-07T08:35:40.620Z,3.80
2023-03-07T08:41:42.725Z,3.90
2023-03-07T08:47:44.437Z,4.00
2023-03-07T08:53:46.817Z,3.90
2023-03-07T08:59:48.555Z,3.90
2023-03-07T09:05:50.347Z,4.00
2023-03-07T09:11:52.139Z,4.00
2023-03-07T09:17:53.990Z,4.00
2023-03-07T09:23:57.137Z,4.00
2023-03-07T09:29:58.930Z,3.90
2023-03-07T09:36:03.552Z,3.90
2023-03-07T09:42:16.989Z,4.00
2023-03-07T09:48:36.496Z,4.10
2023-03-07T09:54:43.084Z,4.10
2023-03-07T10:00:48.135Z,4.10
2023-03-07T10:06:57.349Z,4.30
2023-03-07T10:13:18.112Z,4.20
2023-03-07T10:19:42.366Z,4.20
2023-03-07T10:26:01.382Z,4.20
2023-03-07T10:32:39.005Z,4.00
2023-03-07T10:38:52.596Z,3.80
2023-03-07T10:44:54.393Z,3.60
2023-03-07T10:51:18.958Z,3.30
2023-03-07T10:57:27.739Z,3.00
2023-03-07T11:03:52.763Z,2.90
2023-03-07T11:09:57.394Z,2.70
2023-03-07T11:16:11.983Z,2.80
2023-03-07T11:22:27.792Z,2.80
2023-03-07T11:28:33.455Z,2.80
2023-03-07T11:35:18.250Z,2.70
2023-03-07T11:41:40.170Z,2.70
2023-03-07T11:47:53.050Z,2.70
2023-03-07T11:54:07.812Z,2.70
2023-03-07T12:00:36.330Z,2.80
2023-03-07T12:07:16.164Z,2.70
2023-03-07T12:13:23.956Z,2.70
2023-03-07T12:19:44.332Z,2.60
2023-03-07T12:25:53.759Z,2.90
2023-03-07T12:32:00.647Z,3.00
2023-03-07T12:38:18.558Z,3.10
2023-03-07T12:44:40.806Z,2.80
2023-03-07T12:50:48.308Z,2.70
2023-03-07T12:56:54.697Z,2.60
2023-03-07T13:03:01.432Z,2.60
2023-03-07T13:09:04.129Z,2.40
2023-03-07T13:15:07.148Z,2.30
2023-03-07T13:21:32.722Z,2.10
2023-03-07T13:27:40.618Z,2.10
2023-03-07T13:33:42.634Z,2.10
2023-03-07T13:40:01.117Z,2.30
2023-03-07T13:46:05.769Z,2.30
2023-03-07T13:52:36.104Z,2.40
2023-03-07T13:58:44.251Z,2.40
2023-03-07T14:04:54.157Z,2.50
2023-03-07T14:10:56.772Z,2.70
2023-03-07T14:17:12.945Z,2.80
2023-03-07T14:23:52.578Z,2.80
2023-03-07T14:29:56.986Z,2.70
2023-03-07T14:35:58.979Z,2.60
2023-03-07T14:42:25.202Z,2.50
2023-03-07T14:48:35.738Z,2.50
2023-03-07T14:54:38.194Z,2.60
2023-03-07T15:00:40.098Z,2.60
2023-03-07T15:06:44.089Z,2.60
2023-03-07T15:12:50.053Z,2.60
2023-03-07T15:19:01.895Z,2.60
2023-03-07T15:25:04.337Z,2.60
2023-03-07T15:31:11.444Z,2.60
2023-03-07T15:37:32.764Z,2.60
2023-03-07T15:43:35.485Z,2.70
2023-03-07T15:49:44.671Z,2.60
2023-03-07T15:55:58.647Z,2.60
2023-03-07T16:02:31.530Z,2.50
2023-03-07T16:08:33.532Z,2.60
2023-03-07T16:14:42.004Z,2.50
2023-03-07T16:20:44.611Z,2.40
2023-03-07T16:26:47.384Z,2.30
2023-03-07T16:32:49.373Z,2.10
2023-03-07T16:38:51.097Z,2.10
2023-03-07T16:44:53.189Z,2.10
2023-03-07T16:50:55.166Z,2.00
2023-03-07T16:56:58.356Z,2.10
2023-03-07T17:03:03.164Z,2.00
2023-03-07T17:09:06.627Z,1.90
2023-03-07T17:15:14.025Z,1.80
2023-03-07T17:21:17.256Z,1.70
2023-03-07T17:27:19.948Z,1.70
2023-03-07T17:33:22.037Z,1.60
2023-03-07T17:39:24.127Z,1.60
2023-03-07T17:45:26.006Z,1.60
2023-03-07T17:51:27.783Z,1.50
2023-03-07T17:57:29.606Z,1.40
2023-03-07T18:03:31.314Z,1.30
2023-03-07T18:09:33.494Z,1.30
2023-03-07T18:15:35.230Z,1.30
2023-03-07T18:21:37.094Z,1.30
2023-03-07T18:27:38.784Z,1.30
2023-03-07T18:33:41.509Z,1.30
2023-03-07T18:39:43.367Z,1.30
2023-03-07T18:45:47.686Z,1.30
2023-03-07T18:51:49.457Z,1.30
2023-03-07T18:57:51.214Z,1.50
2023-03-07T19:03:55.163Z,1.50
2023-03-07T19:09:57.259Z,1.30
2023-03-07T19:16:14.458Z,1.20
2023-03-07T19:22:21.428Z,1.20
2023-03-07T19:28:23.168Z,1.20
2023-03-07T19:34:24.947Z,1.20
2023-03-07T19:40:28.476Z,1.20
2023-03-07T19:46:30.285Z,1.20
2023-03-07T19:52:32.120Z,1.10
2023-03-07T19:58:36.533Z,1.00
2023-03-07T20:04:38.218Z,1.00
2023-03-07T20:10:40.275Z,1.00
2023-03-07T20:16:42.048Z,1.00
2023-03-07T20:22:43.802Z,0.90
2023-03-07T20:28:45.963Z,0.90
2023-03-07T20:34:52.653Z,0.90
2023-03-07T20:41:06.991Z,1.00
2023-03-07T20:47:08.701Z,1.00
2023-03-07T20:53:10.476Z,1.10
2023-03-07T20:59:15.557Z,1.00
2023-03-07T21:05:17.286Z,1.10
2023-03-07T21:11:20.491Z,1.10
2023-03-07T21:17:22.275Z,1.00
2023-03-07T21:23:24.030Z,1.00
2023-03-07T21:29:25.801Z,1.10
2023-03-07T21:35:27.571Z,1.00
2023-03-07T21:41:29.598Z,1.00
2023-03-07T21:47:31.322Z,1.00
2023-03-07T21:53:33.691Z,1.10
2023-03-07T21:59:36.441Z,1.00
2023-03-07T22:05:38.985Z,0.90
2023-03-07T22:11:40.689Z,0.80
2023-03-07T22:17:42.402Z,0.90
2023-03-07T22:23:44.664Z,0.90
2023-03-07T22:29:46.492Z,0.90
2023-03-07T22:35:59.458Z,0.90
2023-03-07T22:42:01.314Z,0.90
2023-03-07T22:48:03.579Z,1.00
2023-03-07T22:54:06.261Z,1.00
2023-03-07T23:00:10.398Z,1.00
2023-03-07T23:06:13.029Z,0.90
2023-03-07T23:12:14.743Z,0.90
2023-03-07T23:18:16.501Z,0.80
2023-03-07T23:24:18.189Z,0.70
2023-03-07T23:30:20.192Z,0.80
2023-03-07T23:36:21.966Z,0.80
2023-03-07T23:42:23.817Z,0.90
2023-03-07T23:48:25.570Z,0.80
2023-03-07T23:54:27.364Z,0.80
